sensor_id;sensor_type;location;lat;lon;timestamp;pressure;altitude;pressure_sealevel;temperature;humidity
76434;BME280;65265;53.200;6.080;2023-08-30T00:00:37;100795.03;;;13.61;100.00
76434;BME280;65265;53.200;6.080;2023-08-30T00:05:29;100795.81;;;13.59;100.00
76434;BME280;65265;53.200;6.080;2023-08-30T00:10:22;100782.03;;;13.55;100.00
76434;BME280;65265;53.200;6.080;2023-08-30T00:15:14;100775.94;;;13.52;100.00
76434;BME280;65265;53.200;6.080;2023-08-30T00:20:07;100781.16;;;13.55;100.00
76434;BME280;65265;53.200;6.080;2023-08-30T00:24:59;100736.84;;;13.31;100.00
76434;BME280;65265;53.200;6.080;2023-08-30T00:29:53;100771.84;;;13.58;100.00
76434;BME280;65265;53.200;6.080;2023-08-30T00:34:45;100761.50;;;13.57;100.00
76434;BME280;65265;53.200;6.080;2023-08-30T00:39:37;100759.78;;;13.56;100.00
76434;BME280;65265;53.200;6.080;2023-08-30T00:44:29;100760.56;;;13.53;100.00
76434;BME280;65265;53.200;6.080;2023-08-30T00:49:22;100757.91;;;13.50;100.00
76434;BME280;65265;53.200;6.080;2023-08-30T00:54:13;100762.94;;;13.46;100.00
76434;BME280;65265;53.200;6.080;2023-08-30T00:59:06;100744.66;;;13.35;100.00
76434;BME280;65265;53.200;6.080;2023-08-30T01:03:58;100754.06;;;13.35;100.00
76434;BME280;65265;53.200;6.080;2023-08-30T01:08:52;100745.38;;;13.30;100.00
76434;BME280;65265;53.200;6.080;2023-08-30T01:13:47;100749.50;;;13.25;100.00
76434;BME280;65265;53.200;6.080;2023-08-30T01:18:41;100745.97;;;13.21;100.00
76434;BME280;65265;53.200;6.080;2023-08-30T01:23:40;100738.16;;;13.17;100.00
76434;BME280;65265;53.200;6.080;2023-08-30T01:28:36;100745.63;;;13.09;100.00
76434;BME280;65265;53.200;6.080;2023-08-30T01:33:29;100747.22;;;13.04;100.00
76434;BME280;65265;53.200;6.080;2023-08-30T01:38:23;100738.41;;;12.96;100.00
76434;BME280;65265;53.200;6.080;2023-08-30T01:43:15;100740.81;;;12.92;100.00
76434;BME280;65265;53.200;6.080;2023-08-30T01:48:12;100723.41;;;12.82;100.00
76434;BME280;65265;53.200;6.080;2023-08-30T01:53:04;100730.28;;;12.83;100.00
76434;BME280;65265;53.200;6.080;2023-08-30T01:57:57;100727.63;;;12.80;100.00
76434;BME280;65265;53.200;6.080;2023-08-30T02:02:48;100730.94;;;12.76;100.00
76434;BME280;65265;53.200;6.080;2023-08-30T02:07:46;100722.22;;;12.69;100.00
76434;BME280;65265;53.200;6.080;2023-08-30T02:12:43;100710.03;;;12.62;100.00
76434;BME280;65265;53.200;6.080;2023-08-30T02:17:37;100709.84;;;12.56;100.00
76434;BME280;65265;53.200;6.080;2023-08-30T02:22:30;100708.84;;;12.51;100.00
76434;BME280;65265;53.200;6.080;2023-08-30T02:27:23;100694.13;;;12.46;100.00
76434;BME280;65265;53.200;6.080;2023-08-30T02:32:15;100681.16;;;12.41;100.00
76434;BME280;65265;53.200;6.080;2023-08-30T02:37:10;100680.13;;;12.35;100.00
76434;BME280;65265;53.200;6.080;2023-08-30T02:42:02;100683.34;;;12.28;100.00
76434;BME280;65265;53.200;6.080;2023-08-30T02:46:56;100683.16;;;12.22;100.00
76434;BME280;65265;53.200;6.080;2023-08-30T02:51:47;100682.16;;;12.17;100.00
76434;BME280;65265;53.200;6.080;2023-08-30T02:56:40;100674.31;;;12.12;100.00
76434;BME280;65265;53.200;6.080;2023-08-30T03:01:32;100631.47;;;11.82;100.00
76434;BME280;65265;53.200;6.080;2023-08-30T03:06:26;100674.19;;;12.08;100.00
76434;BME280;65265;53.200;6.080;2023-08-30T03:11:17;100668.22;;;12.09;100.00
76434;BME280;65265;53.200;6.080;2023-08-30T03:16:12;100668.53;;;12.19;100.00
76434;BME280;65265;53.200;6.080;2023-08-30T03:21:04;100655.84;;;12.22;100.00
76434;BME280;65265;53.200;6.080;2023-08-30T03:25:57;100662.72;;;12.25;100.00
76434;BME280;65265;53.200;6.080;2023-08-30T03:30:49;100653.38;;;12.27;100.00
76434;BME280;65265;53.200;6.080;2023-08-30T03:35:40;100653.56;;;12.33;100.00
76434;BME280;65265;53.200;6.080;2023-08-30T03:40:32;100645.03;;;12.34;100.00
76434;BME280;65265;53.200;6.080;2023-08-30T03:45:26;100639.28;;;12.41;100.00
76434;BME280;65265;53.200;6.080;2023-08-30T03:50:17;100631.72;;;12.45;100.00
76434;BME280;65265;53.200;6.080;2023-08-30T03:55:09;100625.06;;;12.52;100.00
76434;BME280;65265;53.200;6.080;2023-08-30T04:00:01;100614.13;;;12.57;100.00
76434;BME280;65265;53.200;6.080;2023-08-30T04:04:55;100611.69;;;12.62;100.00
76434;BME280;65265;53.200;6.080;2023-08-30T04:09:47;100615.16;;;12.64;100.00
76434;BME280;65265;53.200;6.080;2023-08-30T04:14:38;100608.53;;;12.72;100.00
76434;BME280;65265;53.200;6.080;2023-08-30T04:19:30;100589.75;;;12.73;100.00
76434;BME280;65265;53.200;6.080;2023-08-30T04:24:23;100584.75;;;12.77;100.00
76434;BME280;65265;53.200;6.080;2023-08-30T04:29:15;100572.75;;;12.78;100.00
76434;BME280;65265;53.200;6.080;2023-08-30T04:34:06;100574.50;;;12.79;100.00
76434;BME280;65265;53.200;6.080;2023-08-30T04:38:58;100557.94;;;12.66;100.00
76434;BME280;65265;53.200;6.080;2023-08-30T04:43:51;100565.97;;;12.80;100.00
76434;BME280;65265;53.200;6.080;2023-08-30T04:48:43;100559.97;;;12.79;100.00
76434;BME280;65265;53.200;6.080;2023-08-30T04:53:35;100559.16;;;12.82;100.00
76434;BME280;65265;53.200;6.080;2023-08-30T04:58:27;100560.06;;;12.82;100.00
76434;BME280;65265;53.200;6.080;2023-08-30T05:03:20;100549.00;;;12.85;100.00
76434;BME280;65265;53.200;6.080;2023-08-30T05:08:11;100549.84;;;12.85;100.00
76434;BME280;65265;53.200;6.080;2023-08-30T05:13:03;100549.94;;;12.88;100.00
76434;BME280;65265;53.200;6.080;2023-08-30T05:17:55;100555.06;;;12.88;100.00
76434;BME280;65265;53.200;6.080;2023-08-30T05:22:48;100552.59;;;12.91;100.00
76434;BME280;65265;53.200;6.080;2023-08-30T05:27:39;100554.47;;;12.97;100.00
76434;BME280;65265;53.200;6.080;2023-08-30T05:32:31;100549.38;;;12.98;100.00
76434;BME280;65265;53.200;6.080;2023-08-30T05:37:23;100537.47;;;13.02;100.00
76434;BME280;65265;53.200;6.080;2023-08-30T05:42:16;100537.56;;;13.05;100.00
76434;BME280;65265;53.200;6.080;2023-08-30T05:47:08;100523.97;;;13.09;100.00
76434;BME280;65265;53.200;6.080;2023-08-30T05:52:05;100509.47;;;13.11;100.00
76434;BME280;65265;53.200;6.080;2023-08-30T05:56:57;100515.78;;;13.23;100.00
76434;BME280;65265;53.200;6.080;2023-08-30T06:01:50;100509.03;;;13.28;100.00
76434;BME280;65265;53.200;6.080;2023-08-30T06:06:41;100515.06;;;13.30;100.00
76434;BME280;65265;53.200;6.080;2023-08-30T06:11:33;100513.44;;;13.34;100.00
76434;BME280;65265;53.200;6.080;2023-08-30T06:16:25;100514.44;;;13.39;100.00
76434;BME280;65265;53.200;6.080;2023-08-30T06:21:18;100506.81;;;13.42;100.00
76434;BME280;65265;53.200;6.080;2023-08-30T06:26:10;100507.69;;;13.44;100.00
76434;BME280;65265;53.200;6.080;2023-08-30T06:31:01;100505.19;;;13.47;100.00
76434;BME280;65265;53.200;6.080;2023-08-30T06:35:53;100507.03;;;13.52;100.00
76434;BME280;65265;53.200;6.080;2023-08-30T06:40:47;100497.00;;;13.63;100.00
76434;BME280;65265;53.200;6.080;2023-08-30T06:45:39;100513.44;;;13.71;100.00
76434;BME280;65265;53.200;6.080;2023-08-30T06:50:31;100504.94;;;13.73;100.00
76434;BME280;65265;53.200;6.080;2023-08-30T06:55:22;100494.16;;;13.91;100.00
76434;BME280;65265;53.200;6.080;2023-08-30T07:00:17;100486.75;;;14.04;100.00
76434;BME280;65265;53.200;6.080;2023-08-30T07:05:09;100481.09;;;14.20;100.00
76434;BME280;65265;53.200;6.080;2023-08-30T07:10:00;100488.28;;;14.38;100.00
76434;BME280;65265;53.200;6.080;2023-08-30T07:14:53;100479.41;;;14.66;100.00
76434;BME280;65265;53.200;6.080;2023-08-30T07:19:46;100476.38;;;14.91;100.00
76434;BME280;65265;53.200;6.080;2023-08-30T07:24:38;100444.41;;;14.77;100.00
76434;BME280;65265;53.200;6.080;2023-08-30T07:29:29;100466.16;;;14.94;100.00
76434;BME280;65265;53.200;6.080;2023-08-30T07:34:21;100479.16;;;15.03;100.00
76434;BME280;65265;53.200;6.080;2023-08-30T07:39:14;100481.88;;;15.11;100.00
76434;BME280;65265;53.200;6.080;2023-08-30T07:44:06;100488.84;;;15.16;100.00
76434;BME280;65265;53.200;6.080;2023-08-30T07:48:58;100463.88;;;15.14;100.00
76434;BME280;65265;53.200;6.080;2023-08-30T07:53:49;100461.25;;;15.09;100.00
76434;BME280;65265;53.200;6.080;2023-08-30T07:58:43;100495.25;;;15.39;100.00
76434;BME280;65265;53.200;6.080;2023-08-30T08:03:34;100499.66;;;15.49;100.00
76434;BME280;65265;53.200;6.080;2023-08-30T08:08:26;100509.97;;;15.49;100.00
76434;BME280;65265;53.200;6.080;2023-08-30T08:13:17;100502.28;;;15.54;100.00
76434;BME280;65265;53.200;6.080;2023-08-30T08:18:11;100472.97;;;15.44;100.00
76434;BME280;65265;53.200;6.080;2023-08-30T08:23:02;100513.06;;;15.87;100.00
76434;BME280;65265;53.200;6.080;2023-08-30T08:27:54;100513.06;;;15.87;100.00
76434;BME280;65265;53.200;6.080;2023-08-30T08:32:46;100514.81;;;15.86;100.00
76434;BME280;65265;53.200;6.080;2023-08-30T08:37:39;100506.06;;;15.77;100.00
76434;BME280;65265;53.200;6.080;2023-08-30T08:42:31;100522.47;;;15.82;100.00
76434;BME280;65265;53.200;6.080;2023-08-30T08:47:23;100523.38;;;15.85;100.00
76434;BME280;65265;53.200;6.080;2023-08-30T08:52:15;100519.19;;;15.92;100.00
76434;BME280;65265;53.200;6.080;2023-08-30T08:57:09;100510.44;;;15.82;100.00
76434;BME280;65265;53.200;6.080;2023-08-30T09:02:01;100489.88;;;15.85;100.00
76434;BME280;65265;53.200;6.080;2023-08-30T09:06:53;100512.41;;;16.01;100.00
76434;BME280;65265;53.200;6.080;2023-08-30T09:11:44;100515.13;;;16.12;100.00
76434;BME280;65265;53.200;6.080;2023-08-30T09:16:38;100520.44;;;16.25;100.00
76434;BME280;65265;53.200;6.080;2023-08-30T09:21:30;100507.53;;;16.25;100.00
76434;BME280;65265;53.200;6.080;2023-08-30T09:26:22;100501.59;;;16.31;100.00
76434;BME280;65265;53.200;6.080;2023-08-30T09:31:18;100510.06;;;16.19;100.00
76434;BME280;65265;53.200;6.080;2023-08-30T09:36:12;100507.28;;;16.03;100.00
76434;BME280;65265;53.200;6.080;2023-08-30T09:41:03;100491.69;;;15.94;100.00
76434;BME280;65265;53.200;6.080;2023-08-30T09:45:57;100493.34;;;15.90;100.00
76434;BME280;65265;53.200;6.080;2023-08-30T09:50:52;100476.09;;;15.83;100.00
76434;BME280;65265;53.200;6.080;2023-08-30T09:55:46;100470.09;;;15.86;100.00
76434;BME280;65265;53.200;6.080;2023-08-30T10:00:39;100470.97;;;15.88;100.00
76434;BME280;65265;53.200;6.080;2023-08-30T10:05:31;100467.44;;;15.81;100.00
76434;BME280;65265;53.200;6.080;2023-08-30T10:10:25;100453.53;;;15.70;100.00
76434;BME280;65265;53.200;6.080;2023-08-30T10:15:20;100458.72;;;15.69;100.00
76434;BME280;65265;53.200;6.080;2023-08-30T10:20:12;100456.13;;;15.69;100.00
76434;BME280;65265;53.200;6.080;2023-08-30T10:25:08;100448.38;;;15.70;100.00
76434;BME280;65265;53.200;6.080;2023-08-30T10:30:02;100445.97;;;15.81;100.00
76434;BME280;65265;53.200;6.080;2023-08-30T10:35:01;100460.66;;;15.86;100.00
76434;BME280;65265;53.200;6.080;2023-08-30T10:39:59;100454.63;;;15.87;100.00
76434;BME280;65265;53.200;6.080;2023-08-30T10:44:52;100461.41;;;15.79;100.00
76434;BME280;65265;53.200;6.080;2023-08-30T10:49:43;100457.91;;;15.74;100.00
76434;BME280;65265;53.200;6.080;2023-08-30T10:54:49;100453.66;;;15.79;100.00
76434;BME280;65265;53.200;6.080;2023-08-30T11:00:03;100416.59;;;15.70;100.00
76434;BME280;65265;53.200;6.080;2023-08-30T11:04:57;100439.16;;;15.87;100.00
76434;BME280;65265;53.200;6.080;2023-08-30T11:09:55;100440.88;;;15.87;100.00
76434;BME280;65265;53.200;6.080;2023-08-30T11:14:47;100428.81;;;15.86;100.00
76434;BME280;65265;53.200;6.080;2023-08-30T11:19:38;100449.44;;;15.83;100.00
76434;BME280;65265;53.200;6.080;2023-08-30T11:24:30;100449.47;;;15.84;100.00
76434;BME280;65265;53.200;6.080;2023-08-30T11:29:26;100449.44;;;15.86;100.00
76434;BME280;65265;53.200;6.080;2023-08-30T11:34:19;100453.03;;;15.95;100.00
76434;BME280;65265;53.200;6.080;2023-08-30T11:39:13;100445.34;;;16.01;100.00
76434;BME280;65265;53.200;6.080;2023-08-30T11:44:05;100435.91;;;16.03;100.00
76434;BME280;65265;53.200;6.080;2023-08-30T11:48:58;100433.38;;;16.06;100.00
76434;BME280;65265;53.200;6.080;2023-08-30T11:53:50;100423.09;;;16.09;100.00
76434;BME280;65265;53.200;6.080;2023-08-30T11:58:42;100425.59;;;16.02;100.00
76434;BME280;65265;53.200;6.080;2023-08-30T12:03:34;100430.75;;;16.03;100.00
76434;BME280;65265;53.200;6.080;2023-08-30T12:08:30;100426.25;;;15.84;100.00
76434;BME280;65265;53.200;6.080;2023-08-30T12:13:22;100435.72;;;15.85;100.00
76434;BME280;65265;53.200;6.080;2023-08-30T12:18:14;100409.59;;;15.60;100.00
76434;BME280;65265;53.200;6.080;2023-08-30T12:23:06;100436.38;;;15.71;100.00
76434;BME280;65265;53.200;6.080;2023-08-30T12:27:59;100429.47;;;15.67;100.00
76434;BME280;65265;53.200;6.080;2023-08-30T12:33:01;100422.47;;;15.58;100.00
76434;BME280;65265;53.200;6.080;2023-08-30T12:37:53;100420.78;;;15.62;100.00
76434;BME280;65265;53.200;6.080;2023-08-30T12:42:46;100417.38;;;15.61;100.00
76434;BME280;65265;53.200;6.080;2023-08-30T12:47:37;100402.66;;;15.54;100.00
76434;BME280;65265;53.200;6.080;2023-08-30T12:52:30;100422.59;;;15.67;100.00
76434;BME280;65265;53.200;6.080;2023-08-30T12:57:22;100427.75;;;15.70;100.00
76434;BME280;65265;53.200;6.080;2023-08-30T13:02:13;100389.81;;;15.59;100.00
76434;BME280;65265;53.200;6.080;2023-08-30T13:07:05;100407.28;;;15.82;100.00
76434;BME280;65265;53.200;6.080;2023-08-30T13:11:58;100432.47;;;16.03;100.00
76434;BME280;65265;53.200;6.080;2023-08-30T13:16:50;100423.13;;;16.15;100.00
76434;BME280;65265;53.200;6.080;2023-08-30T13:21:41;100422.56;;;16.39;100.00
76434;BME280;65265;53.200;6.080;2023-08-30T13:26:33;100439.09;;;16.57;100.00
76434;BME280;65265;53.200;6.080;2023-08-30T13:31:27;100418.34;;;16.47;100.00
76434;BME280;65265;53.200;6.080;2023-08-30T13:36:19;100428.66;;;16.48;100.00
76434;BME280;65265;53.200;6.080;2023-08-30T13:41:10;100431.22;;;16.45;100.00
76434;BME280;65265;53.200;6.080;2023-08-30T13:46:02;100441.56;;;16.45;100.00
76434;BME280;65265;53.200;6.080;2023-08-30T13:50:56;100438.94;;;16.42;100.00
76434;BME280;65265;53.200;6.080;2023-08-30T13:55:47;100443.97;;;16.33;100.00
76434;BME280;65265;53.200;6.080;2023-08-30T14:00:40;100450.09;;;16.40;100.00
76434;BME280;65265;53.200;6.080;2023-08-30T14:05:31;100450.28;;;16.56;100.00
76434;BME280;65265;53.200;6.080;2023-08-30T14:10:24;100452.03;;;16.62;100.00
76434;BME280;65265;53.200;6.080;2023-08-30T14:15:16;100443.56;;;16.73;100.00
76434;BME280;65265;53.200;6.080;2023-08-30T14:20:09;100440.97;;;16.73;100.00
76434;BME280;65265;53.200;6.080;2023-08-30T14:25:01;100435.88;;;16.84;100.00
76434;BME280;65265;53.200;6.080;2023-08-30T14:29:56;100425.94;;;17.36;100.00
76434;BME280;65265;53.200;6.080;2023-08-30T14:34:48;100431.28;;;17.66;100.00
76434;BME280;65265;53.200;6.080;2023-08-30T14:39:39;100420.94;;;17.69;100.00
76434;BME280;65265;53.200;6.080;2023-08-30T14:44:31;100387.25;;;17.49;100.00
76434;BME280;65265;53.200;6.080;2023-08-30T14:49:24;100418.31;;;17.61;100.00
76434;BME280;65265;53.200;6.080;2023-08-30T14:54:16;100395.69;;;17.24;100.00
76434;BME280;65265;53.200;6.080;2023-08-30T14:59:09;100443.97;;;17.30;100.00
76434;BME280;65265;53.200;6.080;2023-08-30T15:04:00;100455.06;;;17.14;100.00
76434;BME280;65265;53.200;6.080;2023-08-30T15:08:53;100402.50;;;17.12;100.00
76434;BME280;65265;53.200;6.080;2023-08-30T15:13:45;100436.38;;;17.49;100.00
76434;BME280;65265;53.200;6.080;2023-08-30T15:18:36;100436.50;;;17.78;100.00
76434;BME280;65265;53.200;6.080;2023-08-30T15:23:28;100439.09;;;17.81;100.00
76434;BME280;65265;53.200;6.080;2023-08-30T15:28:21;100441.69;;;17.78;100.00
76434;BME280;65265;53.200;6.080;2023-08-30T15:33:13;100442.56;;;17.78;100.00
76434;BME280;65265;53.200;6.080;2023-08-30T15:38:05;100449.41;;;17.67;100.00
76434;BME280;65265;53.200;6.080;2023-08-30T15:42:56;100450.06;;;17.35;100.00
76434;BME280;65265;53.200;6.080;2023-08-30T15:47:49;100428.34;;;17.12;100.00
76434;BME280;65265;53.200;6.080;2023-08-30T15:52:41;100437.91;;;17.22;100.00
76434;BME280;65265;53.200;6.080;2023-08-30T15:57:33;100461.28;;;17.37;100.00
76434;BME280;65265;53.200;6.080;2023-08-30T16:02:24;100445.59;;;17.14;100.00
76434;BME280;65265;53.200;6.080;2023-08-30T16:07:17;100462.72;;;17.05;100.00
76434;BME280;65265;53.200;6.080;2023-08-30T16:12:09;100468.75;;;16.99;100.00
76434;BME280;65265;53.200;6.080;2023-08-30T16:17:01;100463.63;;;17.07;100.00
76434;BME280;65265;53.200;6.080;2023-08-30T16:21:53;100447.97;;;16.89;100.00
76434;BME280;65265;53.200;6.080;2023-08-30T16:26:46;100463.66;;;17.10;100.00
76434;BME280;65265;53.200;6.080;2023-08-30T16:31:41;100461.16;;;17.22;100.00
76434;BME280;65265;53.200;6.080;2023-08-30T16:36:32;100461.16;;;17.22;98.72
76434;BME280;65265;53.200;6.080;2023-08-30T16:41:24;100463.75;;;17.25;100.00
76434;BME280;65265;53.200;6.080;2023-08-30T16:46:17;100475.66;;;17.05;100.00
76434;BME280;65265;53.200;6.080;2023-08-30T16:51:08;100477.22;;;16.84;100.00
76434;BME280;65265;53.200;6.080;2023-08-30T16:56:00;100476.19;;;16.65;100.00
76434;BME280;65265;53.200;6.080;2023-08-30T17:00:53;100484.66;;;16.52;100.00
76434;BME280;65265;53.200;6.080;2023-08-30T17:05:46;100442.06;;;16.14;100.00
76434;BME280;65265;53.200;6.080;2023-08-30T17:10:38;100485.28;;;16.33;100.00
76434;BME280;65265;53.200;6.080;2023-08-30T17:15:29;100466.09;;;16.10;100.00
76434;BME280;65265;53.200;6.080;2023-08-30T17:20:21;100466.72;;;15.90;100.00
76434;BME280;65265;53.200;6.080;2023-08-30T17:25:14;100469.25;;;15.88;100.00
76434;BME280;65265;53.200;6.080;2023-08-30T17:30:07;100507.25;;;16.01;100.00
76434;BME280;65265;53.200;6.080;2023-08-30T17:35:03;100503.78;;;15.99;100.00
76434;BME280;65265;53.200;6.080;2023-08-30T17:39:55;100484.66;;;15.81;100.00
76434;BME280;65265;53.200;6.080;2023-08-30T17:44:48;100507.06;;;15.88;100.00
76434;BME280;65265;53.200;6.080;2023-08-30T17:49:40;100502.66;;;15.79;100.00
76434;BME280;65265;53.200;6.080;2023-08-30T17:54:32;100514.50;;;15.65;100.00
76434;BME280;65265;53.200;6.080;2023-08-30T17:59:25;100512.53;;;15.49;100.00
76434;BME280;65265;53.200;6.080;2023-08-30T18:04:19;100508.91;;;15.34;100.00
76434;BME280;65265;53.200;6.080;2023-08-30T18:09:11;100492.97;;;15.07;100.00
76434;BME280;65265;53.200;6.080;2023-08-30T18:14:03;100527.41;;;15.12;100.00
76434;BME280;65265;53.200;6.080;2023-08-30T18:18:55;100507.91;;;14.78;100.00
76434;BME280;65265;53.200;6.080;2023-08-30T18:24:12;100539.78;;;14.83;100.00
76434;BME280;65265;53.200;6.080;2023-08-30T18:29:05;100529.97;;;14.64;100.00
76434;BME280;65265;53.200;6.080;2023-08-30T18:33:56;100531.66;;;14.62;100.00
76434;BME280;65265;53.200;6.080;2023-08-30T18:38:48;100509.59;;;14.31;100.00
76434;BME280;65265;53.200;6.080;2023-08-30T18:43:42;100533.59;;;14.31;100.00
76434;BME280;65265;53.200;6.080;2023-08-30T18:48:33;100545.56;;;14.28;100.00
76434;BME280;65265;53.200;6.080;2023-08-30T18:53:25;100525.16;;;13.97;100.00
76434;BME280;65265;53.200;6.080;2023-08-30T18:58:17;100562.38;;;14.14;100.00
76434;BME280;65265;53.200;6.080;2023-08-30T19:03:12;100574.13;;;14.01;100.00
76434;BME280;65265;53.200;6.080;2023-08-30T19:08:05;100587.97;;;14.08;100.00
76434;BME280;65265;53.200;6.080;2023-08-30T19:12:57;100590.50;;;14.06;100.00
76434;BME280;65265;53.200;6.080;2023-08-30T19:17:48;100569.47;;;13.85;100.00
76434;BME280;65265;53.200;6.080;2023-08-30T19:22:42;100586.44;;;13.79;100.00
76434;BME280;65265;53.200;6.080;2023-08-30T19:27:34;100593.38;;;13.81;100.00
76434;BME280;65265;53.200;6.080;2023-08-30T19:32:25;100566.28;;;13.60;100.00
76434;BME280;65265;53.200;6.080;2023-08-30T19:37:17;100584.50;;;13.69;100.00
76434;BME280;65265;53.200;6.080;2023-08-30T19:42:12;100581.69;;;13.58;100.00
76434;BME280;65265;53.200;6.080;2023-08-30T19:47:03;100584.09;;;13.51;100.00
76434;BME280;65265;53.200;6.080;2023-08-30T19:51:55;100584.75;;;13.44;100.00
76434;BME280;65265;53.200;6.080;2023-08-30T19:56:47;100592.28;;;13.36;100.00
76434;BME280;65265;53.200;6.080;2023-08-30T20:01:40;100573.63;;;13.09;100.00
76434;BME280;65265;53.200;6.080;2023-08-30T20:06:32;100596.00;;;13.15;100.00
76434;BME280;65265;53.200;6.080;2023-08-30T20:11:23;100600.94;;;13.06;100.00
76434;BME280;65265;53.200;6.080;2023-08-30T20:16:15;100589.38;;;12.92;100.00
76434;BME280;65265;53.200;6.080;2023-08-30T20:21:12;100605.38;;;12.82;100.00
76434;BME280;65265;53.200;6.080;2023-08-30T20:26:04;100600.78;;;12.70;100.00
76434;BME280;65265;53.200;6.080;2023-08-30T20:30:56;100602.94;;;12.55;100.00
76434;BME280;65265;53.200;6.080;2023-08-30T20:35:48;100599.22;;;12.46;100.00
76434;BME280;65265;53.200;6.080;2023-08-30T20:40:42;100599.06;;;12.40;100.00
76434;BME280;65265;53.200;6.080;2023-08-30T20:45:34;100609.84;;;12.28;100.00
76434;BME280;65265;53.200;6.080;2023-08-30T20:50:25;100615.50;;;12.17;100.00
76434;BME280;65265;53.200;6.080;2023-08-30T20:55:17;100618.56;;;12.05;100.00
76434;BME280;65265;53.200;6.080;2023-08-30T21:00:11;100583.59;;;11.80;100.00
76434;BME280;65265;53.200;6.080;2023-08-30T21:05:03;100624.28;;;11.97;100.00
76434;BME280;65265;53.200;6.080;2023-08-30T21:09:55;100629.25;;;11.93;100.00
76434;BME280;65265;53.200;6.080;2023-08-30T21:14:47;100633.41;;;11.89;100.00
76434;BME280;65265;53.200;6.080;2023-08-30T21:19:40;100643.50;;;11.83;100.00
76434;BME280;65265;53.200;6.080;2023-08-30T21:24:32;100651.19;;;11.83;100.00
76434;BME280;65265;53.200;6.080;2023-08-30T21:29:23;100662.50;;;11.91;100.00
76434;BME280;65265;53.200;6.080;2023-08-30T21:34:15;100651.09;;;12.08;100.00
76434;BME280;65265;53.200;6.080;2023-08-30T21:39:15;100635.25;;;12.21;100.00
76434;BME280;65265;53.200;6.080;2023-08-30T21:44:07;100619.13;;;12.25;100.00
76434;BME280;65265;53.200;6.080;2023-08-30T21:49:00;100622.53;;;12.24;100.00
76434;BME280;65265;53.200;6.080;2023-08-30T21:53:51;100619.78;;;12.18;100.00
76434;BME280;65265;53.200;6.080;2023-08-30T21:58:45;100611.91;;;12.12;100.00
76434;BME280;65265;53.200;6.080;2023-08-30T22:03:36;100620.34;;;12.08;100.00
76434;BME280;65265;53.200;6.080;2023-08-30T22:08:28;100613.28;;;12.01;100.00
76434;BME280;65265;53.200;6.080;2023-08-30T22:13:21;100614.72;;;11.93;100.00
76434;BME280;65265;53.200;6.080;2023-08-30T22:18:14;100614.56;;;11.87;100.00
76434;BME280;65265;53.200;6.080;2023-08-30T22:23:05;100616.97;;;11.83;100.00
76434;BME280;65265;53.200;6.080;2023-08-30T22:27:57;100620.31;;;11.80;100.00
76434;BME280;65265;53.200;6.080;2023-08-30T22:32:51;100618.50;;;11.76;100.00
76434;BME280;65265;53.200;6.080;2023-08-30T22:37:45;100621.06;;;11.76;100.00
76434;BME280;65265;53.200;6.080;2023-08-30T22:42:38;100610.72;;;11.73;100.00
76434;BME280;65265;53.200;6.080;2023-08-30T22:47:30;100627.69;;;11.71;100.00
76434;BME280;65265;53.200;6.080;2023-08-30T22:52:21;100628.53;;;11.70;100.00
76434;BME280;65265;53.200;6.080;2023-08-30T22:57:15;100631.16;;;11.72;100.00
76434;BME280;65265;53.200;6.080;2023-08-30T23:02:06;100626.56;;;11.62;100.00
76434;BME280;65265;53.200;6.080;2023-08-30T23:06:58;100630.81;;;11.61;100.00
76434;BME280;65265;53.200;6.080;2023-08-30T23:11:50;100628.84;;;11.54;100.00
76434;BME280;65265;53.200;6.080;2023-08-30T23:16:43;100633.88;;;11.51;100.00
76434;BME280;65265;53.200;6.080;2023-08-30T23:21:36;100633.75;;;11.48;100.00
76434;BME280;65265;53.200;6.080;2023-08-30T23:26:27;100625.25;;;11.49;100.00
76434;BME280;65265;53.200;6.080;2023-08-30T23:31:19;100631.16;;;11.47;100.00
76434;BME280;65265;53.200;6.080;2023-08-30T23:36:12;100636.28;;;11.47;100.00
76434;BME280;65265;53.200;6.080;2023-08-30T23:41:04;100627.78;;;11.48;100.00
76434;BME280;65265;53.200;6.080;2023-08-30T23:45:56;100628.63;;;11.48;100.00
76434;BME280;65265;53.200;6.080;2023-08-30T23:50:48;100619.19;;;11.46;100.00
76434;BME280;65265;53.200;6.080;2023-08-30T23:55:46;100618.22;;;11.42;100.00
